Aérodrome :
LOGIN :

S'inscrire | Disclaimer

   EN    FR    IT 

 










Légende :    VFR   VFR Marginal   IFR   IFR Intensif   IFR Très Intensif
Visi : 
Plafond : 
>= 8 km
>= 3000ft
5 à 8 km
1000 à 3000 ft
1500m à 5 km
500 à 1000 ft
800 à 1500m
200 à 500 ft
< 800m
< 200 ft
Symboles :   Orages  Brouillard  Fortes neiges  Fortes précipitations  Vent > 20 kt
SIGMETs :   Divers  Orages  Givrage  Turbulence  Onde Orograph.  Cendres Volcan.






- Altitude de l'aérodrome : 17 ft
- Code IATA : GRQ


EHGG - Groningen Eelde

DERNIER METAR :
  • 180425Z AUTO 25014KT 9999 FEW032 SCT037 06/02 Q1013

METARs EXPIRÉS :
  • 180355Z AUTO 25014KT 220V280 9999 NCD 05/02 Q1013
  • 180325Z AUTO 25017KT 220V280 9999 NCD 06/02 Q1013
  • 180255Z AUTO 25017KT 220V280 9999 SCT021 SCT025 BKN028 07/03 Q1013
  • 180225Z AUTO 25013KT 220V290 9999 SCT017 BKN020 BKN024 07/04 Q1012
  • 180155Z AUTO 24013KT 210V280 9999 BKN017 BKN020 OVC025 07/04 Q1012

TAF TAF EHGG
Valide du 18 à 00h jusqu'au 19 à 06h UTC


172318Z 1800/1906 25015KT 9999 SCT040
BECMG 1809/1812 25018G28KT
PROB30
TEMPO 1811/1823 6000 SHRA SCT025CB
BECMG 1821/1823 21020KT 6000 RA
TEMPO 1823/1902 25025G35KT 4000 RA SHRA BKN013 SCT015CB
BECMG 1900/1902 27015KT 9999 NSW
TEMPO 1902/1906 29018G28KT 6000 SHRA SCT020CB



MET'MAP, la Météo Aéronautique d'un coup d'oeil ! - Copyright ORBIFLY Décembre 2007 - Disclaimer

ORBIFLY MET'MAP TEAM :

Programmation & Développement : Alexandra Zaïnal
Sur une idée originale de : Baudouin d'Aumeries
Assistance à la programmation : Marc-Olivier Méhu
Soutien technique & logistique : Manuel Goepfert

Contact : metmap@orbifly.com




SOURCES & CREDITS :

   NOAA